Explora — IXWQ — position and weather

sailwx.info

Track history (hours):
 
Tides and Currents Weather Stations Pressure Air Temp Water Temp Dewpoint Dewpoint Depression Visibility Wind Speed Wind Dir Waves Ship Positions

Oceanographic research ship Explora (Italy)

Detailed information on ship capabilities available from University of Delaware's Ocean Information Center.

Last reported at 2014-Dec-15 23:05 UTC. Time now 2014-Dec-18 08:36 UTC.
Position N 38°14' E 009°30'.

Length 73 m; draft 5.5 m.

Type: Dredging. MMSI: 247028700.

Date/timePositionNaut miles runAvg speedWind from/ knotsBaromVisibWave heightAir tempDewpointWater temp
2014-Dec-15 23:05N 38°14' E 009°30'0 0.2
2014-Dec-15 21:32N 38°14' E 009°30'2 0.5
2014-Dec-15 18:13N 38°14' E 009°32'20 2.2
2014-Dec-15 09:17N 38°14' E 009°57'  
2014-Dec-11 07:28N 36°36' E 013°46'3 3.3
2014-Dec-11 06:33N 36°36' E 013°50'6 5.9
2014-Dec-11 05:33N 36°34' E 013°57'1 0.8
2014-Dec-11 04:33N 36°34' E 013°58'3 3.2
2014-Dec-11 03:33N 36°35' E 013°54'3 3.0
2014-Dec-11 02:30N 36°36' E 013°51'3 3.0
2014-Dec-11 01:29N 36°36' E 013°47'2 0.0
2014-Dec-09 08:09N 36°37' E 013°45'2 3.0
2014-Dec-09 07:29N 36°36' E 013°47'3 2.8
2014-Dec-09 06:28N 36°35' E 013°51'3 3.0
2014-Dec-09 05:34N 36°35' E 013°54'3 2.8
2014-Dec-09 04:33N 36°33' E 013°57'3 2.7
2014-Dec-09 03:33N 36°33' E 013°54'3 3.2
2014-Dec-09 02:33N 36°36' E 013°51'1 1.0
2014-Dec-09 01:33N 36°35' E 013°52'1 0.8
2014-Dec-09 00:33N 36°35' E 013°53'1 0.9
2014-Dec-08 23:31N 36°35' E 013°54'1 0.9
2014-Dec-08 22:33N 36°34' E 013°55'2 1.6
2014-Dec-08 21:33N 36°35' E 013°53'4 4.0
2014-Dec-08 20:33N 36°36' E 013°48'4 4.1
2014-Dec-08 19:33N 36°39' E 013°44'3 3.2
2014-Dec-08 18:33N 36°41' E 013°42'2 2.3
2014-Dec-08 17:33N 36°40' E 013°44'2 2.3
2014-Dec-08 16:32N 36°38' E 013°46'2 2.2
2014-Dec-08 15:34N 36°37' E 013°48'2 2.2
2014-Dec-08 14:27N 36°36' E 013°51'1 1.6
2014-Dec-08 13:34N 36°35' E 013°53'1 0.8
2014-Dec-08 12:34N 36°35' E 013°53'3 2.9
2014-Dec-08 11:31N 36°34' E 013°57'1 1.5
2014-Dec-08 10:33N 36°35' E 013°55'3 3.2
2014-Dec-08 09:33N 36°35' E 013°52'5 3.2
2014-Dec-08 08:06N 36°37' E 013°46'1 0.0
2014-Dec-06 18:33N 36°36' E 013°47'8 7.6
2014-Dec-06 17:32N 36°34' E 013°56'1 0.7
2014-Dec-06 16:31N 36°35' E 013°57'4 4.5
2014-Dec-06 15:33N 36°35' E 014°03'3 2.8
2014-Dec-06 14:34N 36°36' E 014°06'0 0.4
2014-Dec-06 13:34N 36°36' E 014°06'5 4.6
2014-Dec-06 12:34N 36°38' E 014°11'2 1.6
2014-Dec-06 11:34N 36°37' E 014°13'1 0.7
2014-Dec-06 10:31N 36°37' E 014°12'0 0.1
2014-Dec-06 09:34N 36°37' E 014°12'4 3.6
2014-Dec-06 08:33N 36°38' E 014°16'3 2.9
2014-Dec-06 07:34N 36°38' E 014°20'0 0.5
2014-Dec-06 06:34N 36°37' E 014°20'5 4.7
2014-Dec-06 05:30N 36°34' E 014°24'5 2.8
2014-Dec-06 03:33N 36°30' E 014°29'  
Track history (hours):
 
Tides and Currents Weather Stations Pressure Air Temp Water Temp Dewpoint Dewpoint Depression Visibility Wind Speed Wind Dir Waves Ship Positions

Oceanographic research ship Explora (Italy)

Detailed information on ship capabilities available from University of Delaware's Ocean Information Center.

Last reported at 2014-Dec-15 23:05 UTC. Time now 2014-Dec-18 08:36 UTC.
Position N 38°14' E 009°30'.

Length 73 m; draft 5.5 m.

Type: Dredging. MMSI: 247028700.

Date/timePositionNaut miles runAvg speedWind from/ knotsBaromVisibWave heightAir tempDewpointWater temp
2014-Dec-15 23:05N 38°14' E 009°30'0 0.2
2014-Dec-15 21:32N 38°14' E 009°30'2 0.5
2014-Dec-15 18:13N 38°14' E 009°32'20 2.2
2014-Dec-15 09:17N 38°14' E 009°57'  
2014-Dec-11 07:28N 36°36' E 013°46'3 3.3
2014-Dec-11 06:33N 36°36' E 013°50'6 5.9
2014-Dec-11 05:33N 36°34' E 013°57'1 0.8
2014-Dec-11 04:33N 36°34' E 013°58'3 3.2
2014-Dec-11 03:33N 36°35' E 013°54'3 3.0
2014-Dec-11 02:30N 36°36' E 013°51'3 3.0
2014-Dec-11 01:29N 36°36' E 013°47'2 0.0
2014-Dec-09 08:09N 36°37' E 013°45'2 3.0
2014-Dec-09 07:29N 36°36' E 013°47'3 2.8
2014-Dec-09 06:28N 36°35' E 013°51'3 3.0
2014-Dec-09 05:34N 36°35' E 013°54'3 2.8
2014-Dec-09 04:33N 36°33' E 013°57'3 2.7
2014-Dec-09 03:33N 36°33' E 013°54'3 3.2
2014-Dec-09 02:33N 36°36' E 013°51'1 1.0
2014-Dec-09 01:33N 36°35' E 013°52'1 0.8
2014-Dec-09 00:33N 36°35' E 013°53'1 0.9
2014-Dec-08 23:31N 36°35' E 013°54'1 0.9
2014-Dec-08 22:33N 36°34' E 013°55'2 1.6
2014-Dec-08 21:33N 36°35' E 013°53'4 4.0
2014-Dec-08 20:33N 36°36' E 013°48'4 4.1
2014-Dec-08 19:33N 36°39' E 013°44'3 3.2
2014-Dec-08 18:33N 36°41' E 013°42'2 2.3
2014-Dec-08 17:33N 36°40' E 013°44'2 2.3
2014-Dec-08 16:32N 36°38' E 013°46'2 2.2
2014-Dec-08 15:34N 36°37' E 013°48'2 2.2
2014-Dec-08 14:27N 36°36' E 013°51'1 1.6
2014-Dec-08 13:34N 36°35' E 013°53'1 0.8
2014-Dec-08 12:34N 36°35' E 013°53'3 2.9
2014-Dec-08 11:31N 36°34' E 013°57'1 1.5
2014-Dec-08 10:33N 36°35' E 013°55'3 3.2
2014-Dec-08 09:33N 36°35' E 013°52'5 3.2
2014-Dec-08 08:06N 36°37' E 013°46'1 0.0
2014-Dec-06 18:33N 36°36' E 013°47'8 7.6
2014-Dec-06 17:32N 36°34' E 013°56'1 0.7
2014-Dec-06 16:31N 36°35' E 013°57'4 4.5
2014-Dec-06 15:33N 36°35' E 014°03'3 2.8
2014-Dec-06 14:34N 36°36' E 014°06'0 0.4
2014-Dec-06 13:34N 36°36' E 014°06'5 4.6
2014-Dec-06 12:34N 36°38' E 014°11'2 1.6
2014-Dec-06 11:34N 36°37' E 014°13'1 0.7
2014-Dec-06 10:31N 36°37' E 014°12'0 0.1
2014-Dec-06 09:34N 36°37' E 014°12'4 3.6
2014-Dec-06 08:33N 36°38' E 014°16'3 2.9
2014-Dec-06 07:34N 36°38' E 014°20'0 0.5
2014-Dec-06 06:34N 36°37' E 014°20'5 4.7
2014-Dec-06 05:30N 36°34' E 014°24'5 2.8
2014-Dec-06 03:33N 36°30' E 014°29'  

Dump ship's entire track history